Flight Track Log - Related Links

Times and Time Zones

All times are in EDT time to prevent confusion due to time zone crossing. See the ABX921 flight status page for this flight to view local times or setup timezone preferences in your user account.

Time Position Orientation Groundspeed Altitude Reporting Facility
EDT Latitude Longitude Course Direction KTS MPH feet Rate Location/Type
Fri 09:37:32 PM 25.9111 -98.9919 82° East 429 494 17,000  Level Houston Center
Fri 09:38:33 PM 25.9278 -98.8628 82° East 428 493 16,900 -492 Descending Houston Center
Fri 09:39:34 PM 25.9483 -98.7083 82° East 422 486 16,000 -439 Descending Houston Center
Fri 09:40:36 PM 25.9653 -98.5828 81° East 413 475 16,000 -732 Level Houston Center
Fri 09:41:37 PM 25.9803 -98.4658 82° East 381 438 14,500 -1,967 Descending Houston Center
Fri 09:42:38 PM 25.9958 -98.3444 82° East 369 425 12,000 -2,016 Descending Houston Center
Fri 09:43:39 PM 26.0094 -98.2367 82° East 356 410 10,400 -1,033 Descending Houston Center
Fri 09:44:40 PM 26.0411 -98.1489 68° East 303 349 9,900 -973 Descending Houston Center
Fri 09:45:30 PM 26.0844 -98.0942 49° Northeast 267 307 8,600 -1,691 Descending Houston Center
Fri 09:46:30 PM 26.1408 -98.0308 45° Northeast 285 328 6,800 -1,228 Descending Houston Center
Fri 09:47:37 PM 26.2011 -97.9647 45° Northeast 288 331 6,000 -375 Descending Houston Center
Fri 09:48:38 PM 26.2556 -97.9039 45° Northeast 279 321 6,000 -94 Level Houston Center
Fri 09:49:44 PM 26.3178 -97.8372 44° Northeast 266 306 5,800 -1,163 Descending Houston Center
Fri 09:50:47 PM 26.3703 -97.7833 43° Northeast 252 290 3,500 -1,672 Descending Houston Center
Fri 09:51:46 PM 26.4111 -97.7267 51° Northeast 238 274 2,400 -885 Descending Houston Center
Fri 09:52:49 PM 26.4000 -97.6731 103° East 187 215 1,700 -384 Descending Houston Center
Fri 09:53:51 PM 26.3622 -97.6567 159° South 150 173 1,600 -49 Descending Houston Center
Fri 09:54:52 PM 26.3206 -97.6572 181° South 145 167 1,600 -344 Level Houston Center
Fri 09:55:53 PM 26.2844 -97.6583 182° South 132 152 900 -634 Descending Houston Center
Fri 09:56:55 PM 26.2481 -97.6597 182° South 114 131 300 -581 Descending Houston Center

Login

Don't have an account? Register now (free) for customized features, flight alerts, and more!